Time,TemperatureF,DewpointF,PressureIn,WindDirection,WindDirectionDegrees,WindSpeedMPH,WindSpeedGustMPH,Humidity,HourlyPrecipIn,Conditions,Clouds,dailyrainin,SoftwareType,DateUTC
2013-09-08 00:12:00,67.0,41.0,28.69,ESE,119,0.0,0.0,38,0.00,,,0.00,,2013-09-08 07:12:00,
2013-09-08 00:23:00,66.0,40.0,28.69,ESE,119,0.0,0.0,39,0.00,,,0.00,,2013-09-08 07:23:00,
2013-09-08 00:42:00,65.0,41.0,28.69,ESE,119,0.0,0.0,41,0.00,,,0.00,,2013-09-08 07:42:00,
2013-09-08 00:52:00,65.0,41.0,28.69,ESE,119,0.0,0.0,42,0.00,,,0.00,,2013-09-08 07:52:00,
2013-09-08 01:11:00,64.0,40.0,28.69,ESE,119,0.0,0.0,42,0.00,,,0.00,,2013-09-08 08:11:00,
2013-09-08 01:22:00,64.0,40.0,28.69,ESE,119,0.0,0.0,42,0.00,,,0.00,,2013-09-08 08:22:00,
2013-09-08 01:42:00,63.0,41.0,28.69,ESE,119,0.0,0.0,44,0.00,,,0.00,,2013-09-08 08:42:00,
2013-09-08 01:52:00,63.0,41.0,28.69,ESE,119,0.0,0.0,45,0.00,,,0.00,,2013-09-08 08:52:00,
2013-09-08 02:11:00,63.0,41.0,28.69,ESE,119,0.0,0.0,45,0.00,,,0.00,,2013-09-08 09:11:00,
2013-09-08 02:22:00,62.0,41.0,28.69,ESE,119,0.0,0.0,46,0.00,,,0.00,,2013-09-08 09:22:00,
2013-09-08 02:53:00,61.0,40.0,28.69,ESE,119,0.0,0.0,46,0.00,,,0.00,,2013-09-08 09:53:00,
2013-09-08 03:12:00,61.0,41.0,28.69,ESE,119,0.0,0.0,48,0.00,,,0.00,,2013-09-08 10:12:00,
2013-09-08 03:23:00,60.0,41.0,28.68,ESE,119,0.0,0.0,49,0.00,,,0.00,,2013-09-08 10:23:00,
2013-09-08 03:42:00,60.0,41.0,28.68,ESE,119,0.0,0.0,49,0.00,,,0.00,,2013-09-08 10:42:00,
2013-09-08 03:53:00,59.0,40.0,28.68,ESE,119,0.0,0.0,49,0.00,,,0.00,,2013-09-08 10:53:00,
2013-09-08 04:12:00,59.0,41.0,28.69,ESE,119,0.0,0.0,51,0.00,,,0.00,,2013-09-08 11:12:00,
2013-09-08 04:21:00,59.0,41.0,28.69,ESE,119,0.0,0.0,51,0.00,,,0.00,,2013-09-08 11:21:00,
2013-09-08 04:42:00,59.0,41.0,28.69,ESE,119,0.0,0.0,51,0.00,,,0.00,,2013-09-08 11:42:00,
2013-09-08 04:52:00,58.0,40.0,28.69,ESE,119,0.0,0.0,51,0.00,,,0.00,,2013-09-08 11:52:00,
2013-09-08 05:12:00,57.0,40.0,28.69,ESE,119,0.0,0.0,52,0.00,,,0.00,,2013-09-08 12:12:00,
2013-09-08 05:21:00,57.0,41.0,28.69,ESE,119,0.0,0.0,54,0.00,,,0.00,,2013-09-08 12:21:00,
2013-09-08 05:42:00,56.0,40.0,28.69,ESE,119,0.0,0.0,55,0.00,,,0.00,,2013-09-08 12:42:00,
2013-09-08 05:52:00,56.0,41.0,28.69,ESE,119,0.0,0.0,56,0.00,,,0.00,,2013-09-08 12:52:00,
2013-09-08 06:11:00,56.0,41.0,28.69,ESE,119,0.0,0.0,57,0.00,,,0.00,,2013-09-08 13:11:00,
2013-09-08 06:22:00,56.0,41.0,28.69,ESE,119,0.0,0.0,56,0.00,,,0.00,,2013-09-08 13:22:00,
2013-09-08 06:42:00,55.0,41.0,28.69,ESE,119,0.0,0.0,60,0.00,,,0.00,,2013-09-08 13:42:00,
2013-09-08 06:52:00,55.0,42.0,28.69,ESE,119,0.0,0.0,61,0.00,,,0.00,,2013-09-08 13:52:00,
2013-09-08 07:11:00,55.0,42.0,28.70,ESE,119,0.0,0.0,61,0.00,,,0.00,,2013-09-08 14:11:00,
2013-09-08 07:22:00,55.0,42.0,28.70,ESE,119,0.0,0.0,61,0.00,,,0.00,,2013-09-08 14:22:00,
2013-09-08 07:42:00,54.0,41.0,28.70,ESE,119,0.0,0.0,61,0.00,,,0.00,,2013-09-08 14:42:00,
2013-09-08 07:52:00,54.0,42.0,28.71,ESE,119,0.0,0.0,63,0.00,,,0.00,,2013-09-08 14:52:00,
2013-09-08 08:12:00,55.0,42.0,28.71,ESE,119,0.0,0.0,62,0.00,,,0.00,,2013-09-08 15:12:00,
2013-09-08 08:23:00,55.0,43.0,28.71,ESE,119,0.0,0.0,63,0.00,,,0.00,,2013-09-08 15:23:00,
2013-09-08 08:45:00,56.0,43.0,28.71,ESE,119,0.0,0.0,62,0.00,,,0.00,,2013-09-08 15:45:00,
2013-09-08 08:54:00,57.0,45.0,28.71,ESE,119,0.0,0.0,65,0.00,,,0.00,,2013-09-08 15:54:00,
2013-09-08 09:14:00,59.0,46.0,28.71,ESE,119,0.0,0.0,62,0.00,,,0.00,,2013-09-08 16:14:00,
2013-09-08 09:23:00,63.0,47.0,28.71,ESE,119,0.0,0.0,56,0.00,,,0.00,,2013-09-08 16:23:00,
2013-09-08 09:43:00,66.0,47.0,28.70,ESE,119,0.0,0.0,51,0.00,,,0.00,,2013-09-08 16:43:00,
2013-09-08 09:53:00,69.0,47.0,28.70,ESE,119,0.0,0.0,46,0.00,,,0.00,,2013-09-08 16:53:00,
2013-09-08 10:12:00,73.0,49.0,28.70,ESE,119,0.0,0.0,43,0.00,,,0.00,,2013-09-08 17:12:00,
2013-09-08 10:23:00,76.0,46.0,28.70,ESE,121,0.0,1.0,35,0.00,,,0.00,,2013-09-08 17:23:00,
2013-09-08 10:43:00,80.0,47.0,28.70,SE,144,0.0,2.0,31,0.00,,,0.00,,2013-09-08 17:43:00,
2013-09-08 10:53:00,83.0,47.0,28.70,SE,145,0.0,1.0,28,0.00,,,0.00,,2013-09-08 17:53:00,
2013-09-08 11:13:00,86.0,49.0,28.70,SE,145,0.0,1.0,28,0.00,,,0.00,,2013-09-08 18:13:00,
2013-09-08 11:22:00,88.0,48.0,28.69,SE,145,0.0,2.0,25,0.00,,,0.00,,2013-09-08 18:22:00,
2013-09-08 11:42:00,91.0,49.0,28.69,SW,220,0.0,2.0,24,0.00,,,0.00,,2013-09-08 18:42:00,
2013-09-08 11:52:00,91.0,47.0,28.69,WSW,246,1.0,3.0,22,0.00,,,0.00,,2013-09-08 18:52:00,
2013-09-08 12:11:00,94.0,48.0,28.68,SE,130,0.0,3.0,21,0.00,,,0.00,,2013-09-08 19:11:00,
2013-09-08 12:22:00,94.0,47.0,28.68,SW,229,1.0,2.0,20,0.00,,,0.00,,2013-09-08 19:22:00,
2013-09-08 12:42:00,94.0,47.0,28.67,SW,218,1.0,3.0,20,0.00,,,0.00,,2013-09-08 19:42:00,
2013-09-08 12:52:00,96.0,46.0,28.66,SW,223,0.0,3.0,18,0.00,,,0.00,,2013-09-08 19:52:00,
2013-09-08 13:11:00,97.0,43.0,28.66,WSW,241,1.0,3.0,16,0.00,,,0.00,,2013-09-08 20:11:00,
2013-09-08 13:22:00,98.0,46.0,28.66,SW,231,0.0,3.0,17,0.00,,,0.00,,2013-09-08 20:22:00,
2013-09-08 13:42:00,99.0,43.0,28.65,South,185,0.0,5.0,15,0.00,,,0.00,,2013-09-08 20:42:00,
2013-09-08 13:53:00,99.0,41.0,28.65,SW,219,2.0,4.0,14,0.00,,,0.00,,2013-09-08 20:53:00,
2013-09-08 14:12:00,100.0,42.0,28.65,NE,43,1.0,4.0,14,0.00,,,0.00,,2013-09-08 21:12:00,
2013-09-08 14:22:00,101.0,41.0,28.64,SSW,206,1.0,3.0,13,0.00,,,0.00,,2013-09-08 21:22:00,
2013-09-08 14:43:00,100.0,40.0,28.64,SW,222,2.0,4.0,13,0.00,,,0.00,,2013-09-08 21:43:00,
2013-09-08 14:54:00,100.0,40.0,28.63,WSW,237,0.0,4.0,13,0.00,,,0.00,,2013-09-08 21:54:00,
2013-09-08 15:13:00,101.0,41.0,28.62,SW,227,2.0,4.0,13,0.00,,,0.00,,2013-09-08 22:13:00,
2013-09-08 15:24:00,101.0,39.0,28.62,SW,217,0.0,3.0,12,0.00,,,0.00,,2013-09-08 22:24:00,
2013-09-08 15:43:00,102.0,40.0,28.61,South,187,0.0,2.0,12,0.00,,,0.00,,2013-09-08 22:43:00,
2013-09-08 15:53:00,102.0,38.0,28.61,SSW,205,1.0,4.0,11,0.00,,,0.00,,2013-09-08 22:53:00,
2013-09-08 16:12:00,103.0,41.0,28.60,WSW,239,0.0,7.0,12,0.00,,,0.00,,2013-09-08 23:12:00,
2013-09-08 16:22:00,103.0,43.0,28.60,SW,227,0.0,2.0,13,0.00,,,0.00,,2013-09-08 23:22:00,
2013-09-08 16:42:00,102.0,44.0,28.59,South,182,1.0,3.0,14,0.00,,,0.00,,2013-09-08 23:42:00,
2013-09-08 16:52:00,101.0,43.0,28.59,SW,224,2.0,4.0,14,0.00,,,0.00,,2013-09-08 23:52:00,
2013-09-08 17:11:00,101.0,46.0,28.59,SW,220,2.0,4.0,16,0.00,,,0.00,,2013-09-09 00:11:00,
2013-09-08 17:21:00,99.0,47.0,28.59,WSW,254,2.0,5.0,17,0.00,,,0.00,,2013-09-09 00:21:00,
2013-09-08 17:42:00,96.0,47.0,28.59,SW,228,2.0,5.0,19,0.00,,,0.00,,2013-09-09 00:42:00,
2013-09-08 17:52:00,95.0,48.0,28.59,SW,224,3.0,5.0,20,0.00,,,0.00,,2013-09-09 00:52:00,
2013-09-08 18:12:00,94.0,47.0,28.59,SSW,200,2.0,5.0,20,0.00,,,0.00,,2013-09-09 01:12:00,
2013-09-08 18:21:00,93.0,47.0,28.59,SW,222,3.0,5.0,21,0.00,,,0.00,,2013-09-09 01:21:00,
2013-09-08 18:42:00,92.0,46.0,28.59,SSW,208,1.0,4.0,21,0.00,,,0.00,,2013-09-09 01:42:00,
2013-09-08 18:52:00,91.0,47.0,28.59,SW,228,2.0,4.0,22,0.00,,,0.00,,2013-09-09 01:52:00,
2013-09-08 19:11:00,91.0,47.0,28.59,SW,220,0.0,3.0,22,0.00,,,0.00,,2013-09-09 02:11:00,
2013-09-08 19:21:00,89.0,45.0,28.59,SSW,192,0.0,4.0,22,0.00,,,0.00,,2013-09-09 02:21:00,
2013-09-08 19:42:00,88.0,46.0,28.60,ESE,117,0.0,1.0,23,0.00,,,0.00,,2013-09-09 02:42:00,
2013-09-08 19:52:00,86.0,45.0,28.60,SE,136,0.0,2.0,24,0.00,,,0.00,,2013-09-09 02:52:00,
2013-09-08 20:12:00,85.0,44.0,28.60,SE,136,0.0,0.0,24,0.00,,,0.00,,2013-09-09 03:12:00,
2013-09-08 20:21:00,84.0,44.0,28.61,SE,136,0.0,1.0,25,0.00,,,0.00,,2013-09-09 03:21:00,
2013-09-08 20:44:00,82.0,44.0,28.61,SE,136,0.0,0.0,26,0.00,,,0.00,,2013-09-09 03:44:00,
2013-09-08 20:55:00,81.0,45.0,28.61,SE,126,0.0,1.0,28,0.00,,,0.00,,2013-09-09 03:55:00,
2013-09-08 21:14:00,80.0,44.0,28.61,ESE,108,0.0,0.0,28,0.00,,,0.00,,2013-09-09 04:14:00,
2013-09-08 21:24:00,79.0,44.0,28.61,NNE,14,0.0,4.0,29,0.00,,,0.00,,2013-09-09 04:24:00,
2013-09-08 21:43:00,79.0,45.0,28.62,NNW,342,0.0,0.0,30,0.00,,,0.00,,2013-09-09 04:43:00,
2013-09-08 21:54:00,77.0,45.0,28.62,NNW,342,0.0,0.0,32,0.00,,,0.00,,2013-09-09 04:54:00,
2013-09-08 22:13:00,76.0,44.0,28.62,NNW,342,0.0,0.0,32,0.00,,,0.00,,2013-09-09 05:13:00,
2013-09-08 22:23:00,76.0,45.0,28.62,NNW,342,0.0,0.0,33,0.00,,,0.00,,2013-09-09 05:23:00,
2013-09-08 22:43:00,76.0,45.0,28.62,NNW,342,0.0,0.0,33,0.00,,,0.00,,2013-09-09 05:43:00,
2013-09-08 22:53:00,74.0,45.0,28.62,NNW,342,0.0,0.0,35,0.00,,,0.00,,2013-09-09 05:53:00,
2013-09-08 23:12:00,73.0,45.0,28.62,NNW,342,0.0,0.0,37,0.00,,,0.00,,2013-09-09 06:12:00,
2013-09-08 23:21:00,72.0,44.0,28.62,NNW,342,0.0,0.0,37,0.00,,,0.00,,2013-09-09 06:21:00,
2013-09-08 23:42:00,72.0,45.0,28.62,NNW,342,0.0,0.0,38,0.00,,,0.00,,2013-09-09 06:42:00,
2013-09-08 23:52:00,71.0,45.0,28.62,NNW,342,0.0,0.0,40,0.00,,,0.00,,2013-09-09 06:52:00,